Time;durP1;ratioP1;P1;durP2;ratioP2;P2;SDS_P1;SDS_P2;PMS_P1;PMS_P2;Temp;Humidity;BMP_temperature;BMP_pressure;BME280_temperature;BME280_humidity;BME280_pressure;Samples;Min_cycle;Max_cycle;Signal;HPM_P1;HPM_P2
2024/03/12 00:02:35;;;;;;;9.80;7.07;;;11.00;95.70;;;;;;6274120;22;20010;-67
2024/03/12 00:05:21;;;;;;;14.15;9.25;;;11.00;95.80;;;;;;6274489;22;20004;-67
2024/03/12 00:08:07;;;;;;;14.35;9.80;;;11.00;95.80;;;;;;6274169;22;20015;-67
2024/03/12 00:10:54;;;;;;;16.92;10.60;;;11.00;95.90;;;;;;6272447;22;20043;-67
2024/03/12 00:13:40;;;;;;;12.85;9.80;;;11.10;95.90;;;;;;6274946;22;20012;-66
2024/03/12 00:16:26;;;;;;;14.00;9.00;;;11.10;95.90;;;;;;6273505;22;20011;-66
2024/03/12 00:19:12;;;;;;;15.90;9.93;;;11.10;95.90;;;;;;6274189;22;20035;-66
2024/03/12 00:21:58;;;;;;;12.18;8.35;;;11.10;96.00;;;;;;6252869;22;20045;-67
2024/03/12 00:24:44;;;;;;;13.60;8.98;;;11.10;95.90;;;;;;6273146;22;20011;-67
2024/03/12 00:27:30;;;;;;;11.45;8.50;;;11.10;95.90;;;;;;6273558;22;20016;-67
2024/03/12 00:30:24;;;;;;;11.80;8.27;;;11.10;95.90;;;;;;6251212;22;20022;-67
2024/03/12 00:33:11;;;;;;;15.75;10.13;;;11.10;95.90;;;;;;6275049;22;20008;-68
2024/03/12 00:36:00;;;;;;;17.30;8.27;;;11.10;96.00;;;;;;6273499;22;20079;-67
2024/03/12 00:38:46;;;;;;;15.70;9.50;;;11.10;95.90;;;;;;6273785;22;20369;-67
2024/03/12 00:41:32;;;;;;;15.88;9.82;;;11.20;95.90;;;;;;6251972;22;20505;-67
2024/03/12 00:44:19;;;;;;;13.38;9.30;;;11.10;95.90;;;;;;6274060;22;20011;-67
2024/03/12 00:47:05;;;;;;;13.57;8.40;;;11.10;95.80;;;;;;6274585;22;20012;-67
2024/03/12 00:49:51;;;;;;;21.42;9.93;;;11.10;95.80;;;;;;6250414;22;20015;-67
2024/03/12 00:52:41;;;;;;;14.25;9.23;;;11.10;95.80;;;;;;6273662;22;20103;-67
2024/03/12 00:55:28;;;;;;;14.93;9.27;;;11.00;95.80;;;;;;6274354;22;20018;-67
2024/03/12 00:58:15;;;;;;;13.98;9.52;;;10.90;95.80;;;;;;6273464;22;20011;-67
2024/03/12 01:01:03;;;;;;;13.75;9.07;;;11.00;95.80;;;;;;6271724;22;20007;-67
2024/03/12 01:03:49;;;;;;;13.82;10.32;;;10.90;95.80;;;;;;6271354;22;20018;-66
2024/03/12 01:06:35;;;;;;;13.40;7.82;;;10.90;95.80;;;;;;6273923;22;20008;-66
2024/03/12 01:09:21;;;;;;;15.02;9.00;;;10.90;95.90;;;;;;6274771;22;20440;-67
2024/03/12 01:12:09;;;;;;;13.80;9.57;;;10.80;95.90;;;;;;6274275;22;20011;-67
2024/03/12 01:14:55;;;;;;;16.95;9.15;;;10.80;95.90;;;;;;6249576;22;20090;-67
2024/03/12 01:17:42;;;;;;;16.77;9.95;;;10.80;95.90;;;;;;6273818;22;20340;-67
2024/03/12 01:20:28;;;;;;;13.40;9.95;;;10.70;96.00;;;;;;6273566;22;20039;-67
2024/03/12 01:23:14;;;;;;;14.43;9.02;;;10.70;96.00;;;;;;6273786;22;20011;-67
2024/03/12 01:26:00;;;;;;;15.73;8.77;;;10.70;96.10;;;;;;6274406;22;20099;-67
2024/03/12 01:28:46;;;;;;;12.13;9.18;;;10.70;96.10;;;;;;6272637;22;20062;-66
2024/03/12 01:31:32;;;;;;;14.68;8.73;;;10.60;96.10;;;;;;6274788;22;20011;-66
2024/03/12 01:34:23;;;;;;;11.48;7.93;;;10.50;96.20;;;;;;6250694;22;20086;-66
2024/03/12 01:37:15;;;;;;;12.00;8.45;;;10.50;96.20;;;;;;6272296;22;20369;-66
2024/03/12 01:40:18;;;;;;;13.18;8.30;;;10.40;96.20;;;;;;6272647;22;20149;-66
2024/03/12 01:43:06;;;;;;;13.05;7.72;;;10.40;96.20;;;;;;6273492;22;20011;-66
2024/03/12 01:45:52;;;;;;;11.23;7.80;;;10.40;96.20;;;;;;6271384;22;20008;-67
2024/03/12 01:48:38;;;;;;;13.43;7.65;;;10.40;96.30;;;;;;6274046;22;20066;-67
2024/03/12 01:51:29;;;;;;;9.85;6.88;;;10.30;96.30;;;;;;6273790;22;20024;-67
2024/03/12 01:54:15;;;;;;;10.35;6.75;;;10.30;96.30;;;;;;6250749;22;20012;-66
2024/03/12 01:57:02;;;;;;;14.98;7.10;;;10.30;96.30;;;;;;6272003;22;20061;-66
2024/03/12 01:59:48;;;;;;;10.75;7.25;;;10.20;96.20;;;;;;6273478;22;20436;-66
2024/03/12 02:02:34;;;;;;;12.20;7.40;;;10.20;96.30;;;;;;6273454;22;20344;-65
2024/03/12 02:05:22;;;;;;;9.55;6.72;;;10.10;96.30;;;;;;6272829;22;20057;-67
2024/03/12 02:08:08;;;;;;;10.05;6.82;;;10.10;96.30;;;;;;6272038;22;20124;-67
2024/03/12 02:10:54;;;;;;;13.27;7.43;;;10.10;96.30;;;;;;6273832;22;20432;-66
2024/03/12 02:13:41;;;;;;;9.05;6.85;;;10.10;96.40;;;;;;6274185;22;20102;-66
2024/03/12 02:16:27;;;;;;;9.75;6.65;;;10.00;96.40;;;;;;6271066;22;20011;-66
2024/03/12 02:19:13;;;;;;;9.75;6.82;;;10.10;96.40;;;;;;6272538;22;20004;-66
2024/03/12 02:21:59;;;;;;;11.30;7.18;;;10.00;96.40;;;;;;6273434;22;20018;-66
2024/03/12 02:24:46;;;;;;;11.73;7.05;;;10.00;96.50;;;;;;6272936;22;20007;-66
2024/03/12 02:27:32;;;;;;;10.35;7.18;;;10.00;96.60;;;;;;6271990;22;20007;-65
2024/03/12 02:30:18;;;;;;;9.38;6.97;;;9.90;96.50;;;;;;6273582;22;20020;-65
2024/03/12 02:33:04;;;;;;;9.73;6.70;;;10.00;96.60;;;;;;6273031;22;20008;-66
2024/03/12 02:35:51;;;;;;;10.00;6.80;;;9.90;96.70;;;;;;6272851;22;20023;-67
2024/03/12 02:38:38;;;;;;;10.88;7.15;;;9.90;96.70;;;;;;6270164;22;20391;-66
2024/03/12 02:41:24;;;;;;;10.50;7.03;;;9.90;97.00;;;;;;6273363;22;20018;-66
2024/03/12 02:44:10;;;;;;;13.63;8.32;;;9.90;96.80;;;;;;6273748;22;20019;-65
2024/03/12 02:46:57;;;;;;;11.27;8.02;;;9.80;96.90;;;;;;6271770;22;20035;-66
2024/03/12 02:49:43;;;;;;;11.63;8.73;;;9.80;96.90;;;;;;6272349;22;20095;-66
2024/03/12 02:52:29;;;;;;;14.05;9.30;;;9.80;97.00;;;;;;6271969;22;20566;-67
2024/03/12 02:55:19;;;;;;;11.90;7.50;;;9.90;97.10;;;;;;6273669;22;20019;-66
2024/03/12 02:58:04;;;;;;;11.05;7.40;;;9.90;97.10;;;;;;6251122;22;20003;-66
2024/03/12 03:00:53;;;;;;;12.38;8.82;;;9.90;97.10;;;;;;6271100;22;20019;-67
2024/03/12 03:03:39;;;;;;;11.82;8.23;;;9.90;97.10;;;;;;6274402;22;20440;-67
2024/03/12 03:06:25;;;;;;;11.38;7.93;;;9.90;97.10;;;;;;6296551;22;20003;-67
2024/03/12 03:09:12;;;;;;;12.35;7.70;;;9.90;97.20;;;;;;6297900;22;20038;-68
2024/03/12 03:11:59;;;;;;;12.50;8.18;;;9.90;97.10;;;;;;6273706;22;20015;-68
2024/03/12 03:14:45;;;;;;;15.15;9.05;;;9.90;97.20;;;;;;6276353;22;20039;-67
2024/03/12 03:17:31;;;;;;;13.45;8.43;;;9.90;97.20;;;;;;6275526;22;20081;-67
2024/03/12 03:20:18;;;;;;;10.88;8.35;;;9.90;97.20;;;;;;6274876;22;20074;-67
2024/03/12 03:23:04;;;;;;;13.40;8.18;;;9.90;97.20;;;;;;6275335;22;20004;-67
2024/03/12 03:25:50;;;;;;;11.80;8.43;;;9.90;97.30;;;;;;6273513;22;20370;-69
2024/03/12 03:28:36;;;;;;;12.77;8.93;;;9.90;97.40;;;;;;6274142;22;20014;-68
2024/03/12 03:31:24;;;;;;;11.50;8.70;;;10.00;97.40;;;;;;6274401;22;20332;-68
2024/03/12 03:34:10;;;;;;;15.30;9.70;;;9.90;97.40;;;;;;6274690;22;20035;-68
2024/03/12 03:36:57;;;;;;;12.23;8.05;;;9.90;97.50;;;;;;6274481;22;20007;-68
2024/03/12 03:39:43;;;;;;;11.95;8.57;;;10.00;97.50;;;;;;6275798;22;20004;-69
2024/03/12 03:42:29;;;;;;;14.10;7.70;;;10.00;97.60;;;;;;6273761;22;20007;-69
2024/03/12 03:45:15;;;;;;;13.43;8.45;;;10.00;97.60;;;;;;6272864;22;20015;-69
2024/03/12 03:48:01;;;;;;;11.70;7.93;;;10.00;97.60;;;;;;6274517;22;20376;-69
2024/03/12 03:50:47;;;;;;;12.07;8.10;;;10.00;97.60;;;;;;6273490;22;20027;-69
2024/03/12 03:53:33;;;;;;;10.35;7.47;;;10.00;97.60;;;;;;6274776;22;20082;-69
2024/03/12 03:56:19;;;;;;;13.63;8.07;;;10.00;97.60;;;;;;6274206;22;20701;-68
2024/03/12 03:59:05;;;;;;;10.73;7.68;;;10.00;97.60;;;;;;6274081;22;20019;-69
2024/03/12 04:01:51;;;;;;;12.45;9.00;;;10.00;97.70;;;;;;6274767;22;20352;-70
2024/03/12 04:04:37;;;;;;;10.30;7.90;;;9.90;97.60;;;;;;6274324;22;20082;-70
2024/03/12 04:07:23;;;;;;;10.45;7.70;;;9.90;97.60;;;;;;6274566;22;20501;-69
2024/03/12 04:10:10;;;;;;;10.23;7.63;;;9.90;97.50;;;;;;6274145;22;20042;-69
2024/03/12 04:12:56;;;;;;;12.38;8.00;;;9.90;97.60;;;;;;6272901;22;20007;-69
2024/03/12 04:15:45;;;;;;;14.40;8.70;;;9.80;97.60;;;;;;6273352;22;20039;-68
2024/03/12 04:18:33;;;;;;;11.35;8.10;;;9.90;97.70;;;;;;6273920;22;20440;-69
2024/03/12 04:21:20;;;;;;;9.95;7.50;;;9.80;97.80;;;;;;6251978;22;20011;-69
2024/03/12 04:24:06;;;;;;;10.77;7.70;;;9.90;97.80;;;;;;6274032;22;20444;-68
2024/03/12 04:26:52;;;;;;;9.25;7.20;;;9.80;97.80;;;;;;6249908;22;20045;-69
2024/03/12 04:29:38;;;;;;;13.88;7.60;;;9.90;97.90;;;;;;6274105;22;20097;-69
2024/03/12 04:32:27;;;;;;;11.63;8.35;;;9.90;97.90;;;;;;6273251;22;20014;-69
2024/03/12 04:35:13;;;;;;;10.27;7.32;;;9.90;97.90;;;;;;6274282;22;20115;-69
2024/03/12 04:38:00;;;;;;;10.82;7.28;;;9.90;97.80;;;;;;6271791;22;20015;-69
2024/03/12 04:40:47;;;;;;;11.95;9.18;;;9.90;97.90;;;;;;6250367;22;20019;-69
2024/03/12 04:43:33;;;;;;;14.27;8.85;;;9.80;97.90;;;;;;6272145;22;20018;-69
2024/03/12 04:46:19;;;;;;;13.27;9.18;;;9.80;98.00;;;;;;6274195;22;20309;-68
2024/03/12 04:49:07;;;;;;;10.93;7.80;;;9.80;98.00;;;;;;6274185;22;20048;-67
2024/03/12 04:51:53;;;;;;;15.75;8.13;;;9.80;98.00;;;;;;6251699;22;20024;-68
2024/03/12 04:54:39;;;;;;;14.38;9.00;;;9.70;98.00;;;;;;6272866;22;20008;-68
2024/03/12 04:57:25;;;;;;;16.80;10.35;;;9.80;98.00;;;;;;6272143;22;20110;-69
2024/03/12 05:00:14;;;;;;;13.38;8.63;;;9.80;98.00;;;;;;6275049;22;20014;-68
2024/03/12 05:03:00;;;;;;;14.63;9.90;;;9.80;98.10;;;;;;6273633;22;20539;-69
2024/03/12 05:05:46;;;;;;;12.93;8.85;;;9.80;98.10;;;;;;6273136;22;20069;-68
2024/03/12 05:08:32;;;;;;;11.70;8.63;;;9.80;98.10;;;;;;6273991;22;20012;-69
2024/03/12 05:11:19;;;;;;;13.23;9.73;;;9.80;98.10;;;;;;6273671;22;20016;-69
2024/03/12 05:14:07;;;;;;;13.85;8.95;;;9.80;98.10;;;;;;6274314;22;20008;-69
2024/03/12 05:16:54;;;;;;;12.07;9.25;;;9.80;98.20;;;;;;6274182;22;20003;-69
2024/03/12 05:19:40;;;;;;;12.60;8.25;;;9.80;98.10;;;;;;6273255;22;20019;-69
2024/03/12 05:22:26;;;;;;;12.15;7.97;;;9.80;98.10;;;;;;6274230;22;20015;-69
2024/03/12 05:25:38;;;;;;;12.45;6.97;;;9.80;98.10;;;;;;6273146;22;20008;-69
2024/03/12 05:28:24;;;;;;;9.27;6.60;;;9.80;98.10;;;;;;6272145;22;20065;-68
2024/03/12 05:31:29;;;;;;;9.00;6.68;;;9.80;98.10;;;;;;6273225;22;20547;-68
2024/03/12 05:34:27;;;;;;;12.37;6.40;;;9.80;98.10;;;;;;6272331;22;20008;-68
2024/03/12 05:37:40;;;;;;;9.13;6.07;;;9.80;98.00;;;;;;6273790;22;20073;-68
2024/03/12 05:40:29;;;;;;;9.40;7.03;;;9.80;98.00;;;;;;6271869;22;20054;-68
2024/03/12 05:49:30;;;;;;;9.45;7.15;;;9.80;98.00;;;;;;6272457;22;20020;-69
2024/03/12 05:52:19;;;;;;;10.27;6.90;;;9.80;98.00;;;;;;6271843;22;20020;-69
2024/03/12 05:55:05;;;;;;;9.52;6.05;;;9.80;98.00;;;;;;6272223;22;20344;-69
2024/03/12 05:57:51;;;;;;;9.57;6.25;;;9.80;98.00;;;;;;6271660;22;20008;-69
2024/03/12 06:00:37;;;;;;;9.38;6.22;;;9.80;98.00;;;;;;6273899;22;20007;-69
2024/03/12 06:03:23;;;;;;;8.40;5.50;;;9.90;97.90;;;;;;6273155;22;20015;-69
2024/03/12 06:06:09;;;;;;;8.40;6.22;;;9.90;97.90;;;;;;6271972;22;20073;-69
2024/03/12 06:08:56;;;;;;;8.77;6.47;;;9.90;97.90;;;;;;6252096;22;20015;-70
2024/03/12 06:11:41;;;;;;;8.32;6.75;;;9.90;97.80;;;;;;6271418;22;20111;-69
2024/03/12 06:14:28;;;;;;;9.20;6.68;;;9.90;97.80;;;;;;6273448;22;20316;-70
2024/03/12 06:17:14;;;;;;;9.05;6.78;;;9.90;97.80;;;;;;6272274;22;20018;-70
2024/03/12 06:20:00;;;;;;;10.73;5.95;;;10.00;97.90;;;;;;6273055;22;20089;-70
2024/03/12 06:22:45;;;;;;;8.63;6.40;;;10.00;97.90;;;;;;6271935;22;20007;-69
2024/03/12 06:25:31;;;;;;;8.88;6.82;;;10.00;97.90;;;;;;6274255;22;20371;-70
2024/03/12 06:28:21;;;;;;;6.68;5.68;;;10.00;97.80;;;;;;6292712;22;20011;-69
2024/03/12 06:31:08;;;;;;;11.60;7.55;;;10.00;97.80;;;;;;6300246;22;20011;-69
2024/03/12 06:33:54;;;;;;;10.18;6.15;;;10.10;97.80;;;;;;6279217;22;20003;-70
2024/03/12 06:36:40;;;;;;;12.68;6.22;;;10.20;97.80;;;;;;6277319;22;20018;-70
2024/03/12 06:39:33;;;;;;;7.93;6.50;;;10.20;97.80;;;;;;6272682;22;20490;-70
2024/03/12 06:42:25;;;;;;;9.52;5.50;;;10.20;97.80;;;;;;6272728;22;20008;-69
2024/03/12 06:45:11;;;;;;;9.15;6.53;;;10.20;97.80;;;;;;6273340;22;20440;-69
2024/03/12 06:48:00;;;;;;;12.38;6.55;;;10.30;97.80;;;;;;6271144;22;20336;-70
2024/03/12 06:50:46;;;;;;;10.15;6.28;;;10.30;97.80;;;;;;6272462;22;20107;-69
2024/03/12 06:53:31;;;;;;;6.97;5.30;;;10.40;97.80;;;;;;6270505;22;20492;-68
2024/03/12 06:56:17;;;;;;;8.15;5.80;;;10.50;97.70;;;;;;6272722;22;20317;-70
2024/03/12 06:59:05;;;;;;;10.05;5.82;;;10.50;97.70;;;;;;6271379;22;20015;-70
2024/03/12 07:01:53;;;;;;;8.00;6.30;;;10.60;97.60;;;;;;6269637;22;20483;-69
2024/03/12 07:04:48;;;;;;;8.35;5.43;;;10.70;97.60;;;;;;6272751;22;20004;-68
2024/03/12 07:07:33;;;;;;;7.93;6.25;;;10.70;97.50;;;;;;6273414;22;20424;-68
2024/03/12 07:10:22;;;;;;;9.68;5.97;;;10.80;97.40;;;;;;6272938;22;20015;-68
2024/03/12 07:13:09;;;;;;;9.57;6.05;;;10.80;97.40;;;;;;6272722;22;20031;-69
2024/03/12 07:15:55;;;;;;;8.55;5.97;;;10.90;97.40;;;;;;6273587;22;20019;-67
2024/03/12 07:18:42;;;;;;;9.10;5.60;;;10.90;97.30;;;;;;6270566;22;20003;-68
2024/03/12 07:21:29;;;;;;;9.43;6.47;;;11.00;97.30;;;;;;6269542;22;20007;-68
2024/03/12 07:24:15;;;;;;;8.95;5.55;;;11.10;97.30;;;;;;6269271;22;20012;-67
2024/03/12 07:27:05;;;;;;;9.60;6.57;;;11.10;97.20;;;;;;6270521;22;20031;-68
2024/03/12 07:29:51;;;;;;;8.45;6.38;;;11.20;97.10;;;;;;6270325;22;20031;-68
2024/03/12 07:32:37;;;;;;;7.90;5.53;;;11.30;97.20;;;;;;6272695;22;20069;-67
2024/03/12 07:35:23;;;;;;;7.93;6.20;;;11.30;97.00;;;;;;6270605;22;20007;-68
2024/03/12 07:38:09;;;;;;;11.00;7.32;;;11.40;97.00;;;;;;6272717;22;20328;-69
2024/03/12 07:40:55;;;;;;;7.63;5.53;;;11.50;96.90;;;;;;6273553;22;20522;-68
2024/03/12 07:43:41;;;;;;;9.63;6.65;;;11.50;96.90;;;;;;6271401;22;20003;-68
2024/03/12 07:46:28;;;;;;;9.05;6.82;;;11.60;97.00;;;;;;6271989;22;20018;-67
2024/03/12 07:49:20;;;;;;;8.85;6.22;;;11.70;96.90;;;;;;6271317;22;20448;-67
2024/03/12 07:52:06;;;;;;;10.52;7.05;;;11.80;96.90;;;;;;6270816;22;20019;-67
2024/03/12 07:54:52;;;;;;;9.98;6.03;;;11.90;96.80;;;;;;6273479;22;20008;-67
2024/03/12 07:57:38;;;;;;;8.77;6.18;;;11.90;96.80;;;;;;6270151;22;20011;-67
2024/03/12 08:00:24;;;;;;;9.25;7.00;;;12.00;96.90;;;;;;6272990;22;20000;-68
2024/03/12 08:03:13;;;;;;;10.40;6.60;;;12.10;96.90;;;;;;6274203;22;20070;-68
2024/03/12 08:05:59;;;;;;;10.93;6.15;;;12.20;96.70;;;;;;6273130;22;20517;-67
2024/03/12 08:08:46;;;;;;;10.85;6.90;;;12.20;96.50;;;;;;6272957;22;20015;-69
2024/03/12 08:11:33;;;;;;;7.57;5.97;;;12.30;96.50;;;;;;6273837;22;20436;-69
2024/03/12 08:14:19;;;;;;;15.93;7.55;;;12.40;96.40;;;;;;6273866;22;20007;-68
2024/03/12 08:17:07;;;;;;;10.73;7.80;;;12.50;96.50;;;;;;6272871;22;20324;-66
2024/03/12 08:19:53;;;;;;;11.88;7.53;;;12.60;96.30;;;;;;6271145;22;20436;-68
2024/03/12 08:22:39;;;;;;;11.15;6.80;;;12.60;96.20;;;;;;6272424;22;20133;-68
2024/03/12 08:25:25;;;;;;;10.40;6.60;;;12.70;96.10;;;;;;6274141;22;20039;-68
2024/03/12 08:28:11;;;;;;;11.68;7.55;;;12.70;95.80;;;;;;6273784;22;20004;-68
2024/03/12 08:30:57;;;;;;;12.65;7.53;;;12.80;95.70;;;;;;6272950;22;20015;-68
2024/03/12 08:33:44;;;;;;;11.43;6.97;;;12.90;95.60;;;;;;6273362;22;20042;-68
2024/03/12 08:36:29;;;;;;;9.75;6.95;;;12.90;95.30;;;;;;6272973;22;20340;-68
2024/03/12 08:39:17;;;;;;;14.10;7.88;;;13.00;95.40;;;;;;6274103;22;20007;-67
2024/03/12 08:42:03;;;;;;;14.07;7.47;;;13.10;95.30;;;;;;6268943;22;20507;-68
2024/03/12 08:44:49;;;;;;;10.70;6.57;;;13.10;95.00;;;;;;6272404;22;20070;-69
2024/03/12 08:47:37;;;;;;;8.80;5.70;;;13.10;94.90;;;;;;6273417;22;20015;-68
2024/03/12 08:50:23;;;;;;;7.65;5.57;;;13.20;94.70;;;;;;6274308;22;20033;-68
2024/03/12 08:53:11;;;;;;;7.97;5.88;;;13.30;94.60;;;;;;6274397;22;20015;-68
2024/03/12 08:55:57;;;;;;;8.43;6.10;;;13.30;94.50;;;;;;6272286;22;20007;-67
2024/03/12 08:58:43;;;;;;;8.00;5.85;;;13.40;94.30;;;;;;6273720;22;20012;-68
2024/03/12 09:01:29;;;;;;;8.90;5.95;;;13.40;94.20;;;;;;6272749;22;20007;-68
2024/03/12 09:04:17;;;;;;;10.35;6.38;;;13.40;94.10;;;;;;6270745;22;20322;-68
2024/03/12 09:07:03;;;;;;;12.85;7.25;;;13.50;94.00;;;;;;6272353;22;20069;-68
2024/03/12 09:09:49;;;;;;;9.63;6.35;;;13.60;94.00;;;;;;6272547;22;20016;-68
2024/03/12 09:12:35;;;;;;;9.63;5.70;;;13.60;93.80;;;;;;6273229;22;20046;-68
2024/03/12 09:15:21;;;;;;;9.52;5.65;;;13.60;93.70;;;;;;6273847;22;20011;-68
2024/03/12 09:18:09;;;;;;;8.73;5.38;;;13.70;93.60;;;;;;6273567;22;20054;-67
2024/03/12 09:20:56;;;;;;;8.07;5.40;;;13.70;93.40;;;;;;6271158;22;20008;-68
2024/03/12 09:23:44;;;;;;;10.70;6.85;;;13.80;93.30;;;;;;6249897;22;20014;-68
2024/03/12 09:26:32;;;;;;;16.23;8.48;;;13.80;93.20;;;;;;6272537;22;20012;-68
2024/03/12 09:29:17;;;;;;;15.40;6.97;;;13.90;93.10;;;;;;6273319;22;20015;-67
2024/03/12 09:32:05;;;;;;;8.02;5.20;;;13.90;93.10;;;;;;6272787;22;20491;-67
2024/03/12 09:34:54;;;;;;;10.43;5.93;;;14.00;93.00;;;;;;6273953;22;20003;-68
2024/03/12 09:37:40;;;;;;;8.45;5.57;;;14.00;92.90;;;;;;6271893;22;20015;-68
2024/03/12 09:40:28;;;;;;;6.85;4.63;;;14.10;93.10;;;;;;6246347;22;20012;-68
2024/03/12 09:43:18;;;;;;;6.65;4.38;;;14.20;92.70;;;;;;6272238;22;20012;-68
2024/03/12 09:46:04;;;;;;;7.45;4.60;;;14.20;92.70;;;;;;6273871;22;20083;-66
2024/03/12 09:48:51;;;;;;;7.68;4.32;;;14.30;92.60;;;;;;6288306;22;20071;-69
2024/03/12 09:51:37;;;;;;;10.90;5.35;;;14.30;92.50;;;;;;6298464;22;20027;-69
2024/03/12 09:54:24;;;;;;;7.55;5.68;;;14.50;92.50;;;;;;6285445;22;20007;-70
2024/03/12 09:57:10;;;;;;;7.57;4.93;;;14.50;92.40;;;;;;6276253;22;20004;-67
2024/03/12 09:59:56;;;;;;;6.90;4.10;;;14.60;92.30;;;;;;6272669;22;20019;-67
2024/03/12 10:02:44;;;;;;;4.38;3.08;;;14.70;92.10;;;;;;6272297;22;20011;-69
2024/03/12 10:05:31;;;;;;;6.47;3.22;;;14.70;92.00;;;;;;6274002;22;20371;-68
2024/03/12 10:08:28;;;;;;;5.93;2.83;;;14.80;91.90;;;;;;6272045;22;20004;-70
2024/03/12 10:11:20;;;;;;;6.38;4.55;;;14.90;91.80;;;;;;6272247;22;20019;-69
2024/03/12 10:14:06;;;;;;;5.88;4.10;;;15.00;91.70;;;;;;6273130;22;20026;-71
2024/03/12 10:17:14;;;;;;;5.85;3.40;;;15.00;91.70;;;;;;6273218;22;20019;-69
2024/03/12 10:20:15;;;;;;;6.50;3.07;;;15.10;91.00;;;;;;6272251;22;20008;-70
2024/03/12 10:23:15;;;;;;;5.32;2.90;;;15.10;91.20;;;;;;6271192;22;20254;-70
2024/03/12 10:26:16;;;;;;;4.13;2.47;;;15.20;90.90;;;;;;6271445;22;20007;-69
2024/03/12 10:29:13;;;;;;;5.60;2.50;;;15.20;90.80;;;;;;6271251;22;20019;-70
2024/03/12 10:32:02;;;;;;;4.05;2.45;;;15.30;90.70;;;;;;6271794;22;20090;-70
2024/03/12 10:34:49;;;;;;;4.18;2.35;;;15.30;90.60;;;;;;6270926;22;20015;-71
2024/03/12 10:37:35;;;;;;;5.72;2.67;;;15.30;90.40;;;;;;6272794;22;20468;-70
2024/03/12 10:40:22;;;;;;;5.07;3.22;;;15.40;90.40;;;;;;6271689;22;20011;-70
2024/03/12 10:43:08;;;;;;;5.13;3.08;;;15.40;90.20;;;;;;6271910;22;20116;-70
2024/03/12 10:45:55;;;;;;;5.85;3.20;;;15.40;90.10;;;;;;6272800;22;20003;-69
2024/03/12 10:48:42;;;;;;;8.38;3.05;;;15.40;89.50;;;;;;6270881;22;20015;-69
2024/03/12 10:51:28;;;;;;;4.07;2.70;;;15.30;89.40;;;;;;6272249;22;20470;-69
2024/03/12 10:54:16;;;;;;;5.72;3.40;;;15.30;89.40;;;;;;6272000;22;20502;-70
2024/03/12 10:57:03;;;;;;;6.57;3.25;;;15.40;89.30;;;;;;6271406;22;20000;-68
2024/03/12 10:59:49;;;;;;;5.32;2.42;;;15.40;89.20;;;;;;6270762;22;20014;-68
2024/03/12 11:02:39;;;;;;;5.20;2.70;;;15.40;88.70;;;;;;6273283;22;20019;-67
2024/03/12 11:05:27;;;;;;;4.22;2.90;;;15.40;88.70;;;;;;6273225;22;20023;-67
2024/03/12 11:08:14;;;;;;;4.80;3.28;;;15.40;88.20;;;;;;6272777;22;20322;-70
2024/03/12 11:11:02;;;;;;;4.93;2.60;;;15.40;88.10;;;;;;6268468;22;20026;-68
2024/03/12 11:13:52;;;;;;;4.75;2.80;;;15.40;88.30;;;;;;6272466;22;20008;-71
2024/03/12 11:16:40;;;;;;;6.10;2.72;;;15.40;88.30;;;;;;6272807;22;20007;-72
2024/03/12 11:19:27;;;;;;;4.85;2.65;;;15.50;88.10;;;;;;6270631;22;20008;-71
2024/03/12 11:22:16;;;;;;;4.15;2.95;;;15.50;88.10;;;;;;6271223;22;20437;-71
2024/03/12 11:25:08;;;;;;;5.38;2.47;;;15.60;87.80;;;;;;6271375;22;20458;-71
2024/03/12 11:28:16;;;;;;;6.20;2.58;;;15.60;87.50;;;;;;6269758;22;20502;-70
2024/03/12 11:31:04;;;;;;;7.60;2.88;;;15.70;87.60;;;;;;6271540;22;20070;-70
2024/03/12 11:33:51;;;;;;;6.07;2.38;;;15.80;87.20;;;;;;6274081;22;20020;-71
2024/03/12 11:36:40;;;;;;;5.28;2.92;;;15.70;86.80;;;;;;6272702;22;20062;-71
2024/03/12 11:39:29;;;;;;;5.32;2.63;;;15.80;86.80;;;;;;6250007;22;20355;-71
2024/03/12 11:42:15;;;;;;;5.03;3.25;;;15.80;86.90;;;;;;6271519;22;20015;-72
2024/03/12 11:45:01;;;;;;;5.82;3.13;;;15.80;86.80;;;;;;6273669;22;20019;-71
2024/03/12 11:47:54;;;;;;;4.47;2.83;;;15.80;86.70;;;;;;6272778;22;20353;-71
2024/03/12 11:50:42;;;;;;;6.95;3.63;;;15.80;86.50;;;;;;6273471;22;20058;-70
2024/03/12 11:53:36;;;;;;;5.63;3.05;;;15.80;86.50;;;;;;6272963;22;20035;-70
2024/03/12 11:56:27;;;;;;;6.05;3.35;;;15.80;86.50;;;;;;6272361;22;20070;-71
2024/03/12 11:59:23;;;;;;;7.22;3.85;;;15.90;86.20;;;;;;6246770;22;20095;-70
2024/03/12 12:02:10;;;;;;;4.63;3.30;;;15.90;86.10;;;;;;6248284;22;20696;-71
2024/03/12 12:04:57;;;;;;;6.60;2.97;;;15.90;86.00;;;;;;6271458;22;20328;-71
2024/03/12 12:07:43;;;;;;;4.50;2.97;;;16.00;85.70;;;;;;6272046;22;20039;-68
2024/03/12 12:10:29;;;;;;;5.95;3.28;;;16.00;85.70;;;;;;6272074;22;20024;-68
2024/03/12 12:13:16;;;;;;;6.60;3.30;;;16.10;85.40;;;;;;6271028;22;20355;-67
2024/03/12 12:16:04;;;;;;;4.80;3.35;;;16.00;85.00;;;;;;6274559;22;20087;-68
2024/03/12 12:18:50;;;;;;;7.72;3.58;;;16.10;84.80;;;;;;6269844;22;20407;-66
2024/03/12 12:21:37;;;;;;;5.00;3.20;;;16.20;84.60;;;;;;6274084;22;20008;-66
2024/03/12 12:24:24;;;;;;;5.97;3.47;;;16.30;84.70;;;;;;6273728;22;20007;-65
2024/03/12 12:27:11;;;;;;;6.85;3.88;;;16.40;84.60;;;;;;6273960;22;20019;-71
2024/03/12 12:29:57;;;;;;;9.05;3.80;;;16.40;84.40;;;;;;6271522;22;20023;-70
2024/03/12 12:32:44;;;;;;;5.70;3.72;;;16.40;83.90;;;;;;6272331;22;20004;-67
2024/03/12 12:35:31;;;;;;;4.38;3.55;;;16.40;83.60;;;;;;6273730;22;20016;-69
2024/03/12 12:38:17;;;;;;;6.32;3.28;;;16.50;83.10;;;;;;6271324;22;20083;-70
2024/03/12 12:41:08;;;;;;;4.95;2.30;;;16.60;83.10;;;;;;6272722;22;20018;-66
2024/03/12 12:43:54;;;;;;;3.65;2.40;;;16.70;83.20;;;;;;6270889;22;20145;-69
2024/03/12 12:46:40;;;;;;;4.63;3.25;;;16.90;82.90;;;;;;6271919;22;20016;-68
2024/03/12 12:49:28;;;;;;;13.45;3.63;;;17.00;82.80;;;;;;6271495;22;20019;-69
2024/03/12 12:52:15;;;;;;;5.70;3.03;;;17.00;82.10;;;;;;6274421;22;20090;-69
2024/03/12 12:55:00;;;;;;;6.32;3.38;;;17.10;82.20;;;;;;6271689;22;20095;-69
2024/03/12 12:57:57;;;;;;;5.45;3.10;;;17.20;81.50;;;;;;6272792;22;20069;-69
2024/03/12 13:00:45;;;;;;;6.30;3.83;;;17.20;80.90;;;;;;6273208;22;20011;-68
2024/03/12 13:03:43;;;;;;;6.80;3.20;;;17.20;80.10;;;;;;6249487;22;20394;-68
2024/03/12 13:06:30;;;;;;;4.07;2.92;;;17.10;80.60;;;;;;6269243;22;20092;-69
2024/03/12 13:09:31;;;;;;;4.70;3.22;;;17.00;80.30;;;;;;6275589;22;20008;-68
2024/03/12 13:12:17;;;;;;;5.88;3.20;;;17.00;80.40;;;;;;6295791;22;20019;-68
2024/03/12 13:15:03;;;;;;;5.82;3.25;;;17.00;80.30;;;;;;6290253;22;20007;-68
2024/03/12 13:17:51;;;;;;;4.75;3.47;;;17.00;80.40;;;;;;6274273;22;20525;-68
2024/03/12 13:20:37;;;;;;;8.80;3.05;;;17.00;80.30;;;;;;6273351;22;20004;-68
2024/03/12 13:23:23;;;;;;;6.95;3.42;;;17.10;80.00;;;;;;6273967;22;20372;-69
2024/03/12 13:26:12;;;;;;;6.05;2.90;;;17.10;80.00;;;;;;6271042;22;20087;-69
2024/03/12 13:28:58;;;;;;;4.22;2.70;;;17.20;79.60;;;;;;6272614;22;20039;-69
2024/03/12 13:31:45;;;;;;;4.40;3.28;;;17.20;79.40;;;;;;6249826;22;20099;-69
2024/03/12 13:34:31;;;;;;;6.43;3.03;;;17.20;79.20;;;;;;6270838;22;20083;-69
2024/03/12 13:37:18;;;;;;;5.55;3.92;;;17.20;79.30;;;;;;6273606;22;20019;-69
2024/03/12 13:40:05;;;;;;;6.90;4.15;;;17.20;78.80;;;;;;6270567;22;20008;-75
2024/03/12 13:42:51;;;;;;;5.88;3.40;;;17.10;78.70;;;;;;6272185;22;20019;-69
2024/03/12 13:45:48;;;;;;;7.57;3.58;;;17.10;78.90;;;;;;6272537;22;20007;-70
2024/03/12 13:48:39;;;;;;;5.55;3.05;;;17.10;78.80;;;;;;6250634;22;20031;-68
2024/03/12 13:51:25;;;;;;;6.40;3.55;;;17.10;78.80;;;;;;6273120;22;20034;-59
2024/03/12 13:54:11;;;;;;;6.25;3.20;;;17.00;78.00;;;;;;6271657;22;20083;-72
2024/03/12 13:56:57;;;;;;;6.35;3.30;;;16.90;78.40;;;;;;6272259;22;20091;-68
2024/03/12 13:59:44;;;;;;;6.03;3.70;;;16.90;78.50;;;;;;6272385;22;20058;-69
2024/03/12 14:02:30;;;;;;;5.88;3.45;;;16.90;78.40;;;;;;6271749;22;20016;-68
2024/03/12 14:05:17;;;;;;;5.57;3.58;;;16.90;78.50;;;;;;6272016;22;20007;-68
2024/03/12 14:08:03;;;;;;;5.00;3.35;;;16.90;78.50;;;;;;6270253;22;20011;-69
2024/03/12 14:10:51;;;;;;;4.55;3.45;;;16.90;78.80;;;;;;6271833;22;20020;-70
2024/03/12 14:13:37;;;;;;;8.07;3.78;;;17.00;78.90;;;;;;6270996;22;20012;-70
2024/03/12 14:16:23;;;;;;;6.15;3.88;;;17.20;78.70;;;;;;6271479;22;20087;-68
2024/03/12 14:19:09;;;;;;;5.90;3.03;;;17.40;79.20;;;;;;6270917;22;20324;-67
2024/03/12 14:21:55;;;;;;;5.85;3.45;;;17.50;78.50;;;;;;6271262;22;20012;-68
2024/03/12 14:24:41;;;;;;;14.40;4.03;;;17.70;78.10;;;;;;6272076;22;20439;-69
2024/03/12 14:27:27;;;;;;;6.22;3.65;;;17.80;77.50;;;;;;6272241;22;20436;-69
2024/03/12 14:30:13;;;;;;;5.88;3.67;;;17.90;77.00;;;;;;6271890;22;20016;-69
2024/03/12 14:33:00;;;;;;;6.53;3.70;;;18.00;76.80;;;;;;6272395;22;20374;-65
2024/03/12 14:35:47;;;;;;;5.38;3.45;;;18.10;76.70;;;;;;6270503;22;20040;-63
2024/03/12 14:38:32;;;;;;;6.78;4.18;;;18.10;76.60;;;;;;6270147;22;20092;-64